Weather reports worldwide

Advertisment
Pristina, Kosovo (13481): temperature & dewpoint: 13.02.2018 16:00:00 - 19.02.2018 16:00:00 (CET)Pristina, Kosovo (13481): wind speed: 13.02.2018 16:00:00 - 19.02.2018 16:00:00 (CET)Pristina, Kosovo (13481): wind direction: 13.02.2018 16:00:00 - 19.02.2018 16:00:00 (CET)Pristina, Kosovo (13481): visibility: 13.02.2018 16:00:00 - 19.02.2018 16:00:00 (CET)
Date & Time tt [°C] td [°C] ff [km/h] ff [kn] dd vv [km]
19.02.2018 16:00:00 1,0 -1,0 16 9 N 4,0
19.02.2018 15:00:00 1,0 -1,0 18 10 N 5
19.02.2018 14:00:00 1,0 -2,0 21 11 N 6
19.02.2018 13:00:00 2,0 -2,0 22 12 N 10
19.02.2018 12:00:00 1,0 -2,0 22 12 N 10
19.02.2018 11:00:00 1,0 -2,0 22 12 NNE 8
19.02.2018 10:00:00 1,0 -3,0 22 12 NNE 10
19.02.2018 09:00:00 0,0 -3,0 18 10 N 6
19.02.2018 08:00:00 0,0 -3,0 16 9 N 6
19.02.2018 07:00:00 0,0 -3,0 13 7 N 4,0
19.02.2018 06:00:00 0,0 -3,0 11 6 N 7
19.02.2018 05:00:00 0,0 -3,0 11 6 N 10
19.02.2018 04:00:00 0,0 -2,0 13 7 NNE 10
19.02.2018 03:00:00 0,0 -2,0 15 8 NNE 10
19.02.2018 02:00:00 1,0 -2,0 16 9 NNE 10
19.02.2018 01:00:00 1,0 -2,0 13 7 NNE 10
19.02.2018 00:00:00 1,0 -2,0 16 9 NNE 10
18.02.2018 23:00:00 1,0 -1,0 16 9 NNE 10
18.02.2018 22:00:00 2,0 -1,0 21 11 N 10
18.02.2018 21:00:00 2,0 -1,0 24 13 N 10
18.02.2018 20:00:00 3,0 0,0 26 14 N 10
18.02.2018 19:00:00 4,0 1,0 22 12 N 10
18.02.2018 18:00:00 4,0 1,0 22 12 N 8
18.02.2018 17:00:00 5,0 2,0 24 13 N 7
18.02.2018 16:00:00 7,0 2,0 22 12 N 8
18.02.2018 15:00:00 9,0 2,0 11 6 N 8
18.02.2018 14:00:00 9,0 2,0 2 1 - 10
18.02.2018 13:00:00 9,0 2,0 5 3 - 10
18.02.2018 12:00:00 8,0 2,0 9 5 S 10
18.02.2018 11:00:00 7,0 3,0 13 7 SSE 10
18.02.2018 10:00:00 6,0 2,0 16 9 S 10
18.02.2018 09:00:00 6,0 2,0 16 9 S 8
18.02.2018 08:00:00 5,0 2,0 16 9 SSW 7
18.02.2018 07:00:00 5,0 1,0 15 8 SSW 8
18.02.2018 06:00:00 5,0 1,0 15 8 SSW 10
18.02.2018 05:00:00 4,0 0,0 11 6 S 10
18.02.2018 04:00:00 4,0 0,0 11 6 S 10
18.02.2018 03:00:00 4,0 -1,0 5 3 - 10
18.02.2018 02:00:00 4,0 -2,0 9 5 S 10
18.02.2018 01:00:00 1,0 -2,0 8 4 S 10
18.02.2018 00:00:00 1,0 -3,0 2 1 - 10
17.02.2018 23:00:00 1,0 -3,0 0 0 N 10
17.02.2018 22:00:00 2,0 -2,0 2 1 - 10
17.02.2018 21:00:00 2,0 -2,0 0 0 N 10
17.02.2018 20:00:00 3,0 -2,0 2 1 - 10
17.02.2018 19:00:00 4,0 -1,0 8 4 WSW 10
17.02.2018 18:00:00 5,0 -2,0 5 3 - 10
17.02.2018 17:00:00 7,0 -3,0 4 2 - 10
17.02.2018 16:00:00 10,0 -6,0 5 3 - 10
17.02.2018 15:00:00 10,0 -5,0 8 4 S 10
17.02.2018 14:00:00 10,0 -3,0 4 2 - 10
17.02.2018 13:00:00 8,0 -2,0 4 2 - 10
17.02.2018 12:00:00 7,0 -3,0 4 2 - 8
17.02.2018 11:00:00 5,0 -1,0 2 1 - 8
17.02.2018 10:00:00 3,0 -2,0 2 1 - 5
17.02.2018 09:00:00 1,0 -3,0 2 1 - 3,5
17.02.2018 08:00:00 -1,0 -4,0 4 2 - 2,5
17.02.2018 07:00:00 -3,0 -5,0 2 1 - 1,2
17.02.2018 06:00:00 -2,0 -5,0 4 2 - 2,5
17.02.2018 05:00:00 -2,0 -5,0 4 2 - 4,0
17.02.2018 04:00:00 -3,0 -5,0 0 0 N 4,0
17.02.2018 03:00:00 -3,0 -6,0 4 2 - 4,0
17.02.2018 02:00:00 -2,0 -5,0 4 2 - 6
17.02.2018 01:00:00 -1,0 -5,0 4 2 - 6
17.02.2018 00:00:00 -1,0 -4,0 4 2 - 6
16.02.2018 23:00:00 -2,0 -5,0 8 4 N 6
16.02.2018 22:00:00 -1,0 -4,0 0 0 N 7
16.02.2018 21:00:00 0,0 -4,0 2 1 - 10
16.02.2018 20:00:00 1,0 -3,0 2 1 - 10
16.02.2018 19:00:00 2,0 -4,0 4 2 - 10
16.02.2018 18:00:00 2,0 -3,0 5 3 - 10
16.02.2018 17:00:00 4,0 -3,0 2 1 - 10
16.02.2018 16:00:00 6,0 -4,0 4 2 - 10
16.02.2018 15:00:00 5,0 -4,0 2 1 - 10
16.02.2018 14:00:00 4,0 -4,0 5 3 - 10
16.02.2018 13:00:00 4,0 -5,0 4 2 - 10
16.02.2018 12:00:00 3,0 -5,0 5 3 - 10
16.02.2018 11:00:00 1,0 -6,0 4 2 - 10
16.02.2018 10:00:00 1,0 -6,0 8 4 S 10
16.02.2018 09:00:00 1,0 -6,0 4 2 - 10
16.02.2018 08:00:00 0,0 -5,0 2 1 - 10
16.02.2018 07:00:00 0,0 -5,0 2 1 - 10
16.02.2018 06:00:00 0,0 -4,0 8 4 NNE 10
16.02.2018 05:00:00 0,0 -4,0 8 4 N 10
16.02.2018 04:00:00 0,0 -4,0 8 4 N 10
16.02.2018 03:00:00 0,0 -4,0 8 4 NNE 10
16.02.2018 02:00:00 0,0 -4,0 8 4 NNE 10
16.02.2018 01:00:00 0,0 -4,0 8 4 N 10
16.02.2018 00:00:00 0,0 -4,0 9 5 NNE 10
15.02.2018 23:00:00 0,0 -4,0 8 4 NNE 10
15.02.2018 22:00:00 0,0 -4,0 11 6 NNE 10
15.02.2018 21:00:00 0,0 -4,0 11 6 NNE 10
15.02.2018 20:00:00 0,0 -4,0 11 6 NNE 10
15.02.2018 19:00:00 0,0 -4,0 15 8 NNE 10
15.02.2018 18:00:00 0,0 -4,0 18 10 NNE 10
15.02.2018 17:00:00 0,0 -4,0 22 12 NE 10
15.02.2018 16:00:00 1,0 -5,0 22 12 NE 10
15.02.2018 15:00:00 1,0 -5,0 21 11 NE 10
15.02.2018 14:00:00 1,0 -5,0 24 13 NE 10
15.02.2018 13:00:00 1,0 -5,0 22 12 NNE 10
15.02.2018 12:00:00 1,0 -5,0 21 11 NNE 10
15.02.2018 11:00:00 1,0 -4,0 22 12 N 10
15.02.2018 10:00:00 1,0 -4,0 13 7 NNE 10
15.02.2018 09:00:00 0,0 -5,0 2 1 - 10
15.02.2018 08:00:00 -1,0 -4,0 4 2 - 10
15.02.2018 07:00:00 -2,0 -5,0 4 2 - 10
15.02.2018 06:00:00 -1,0 -5,0 5 3 - 10
15.02.2018 05:00:00 -1,0 -5,0 4 2 - 10
15.02.2018 04:00:00 -1,0 -4,0 4 2 - 10
15.02.2018 03:00:00 0,0 -5,0 4 2 - 10
15.02.2018 02:00:00 0,0 -4,0 4 2 - 10
15.02.2018 01:00:00 0,0 -4,0 9 5 NNW 10
15.02.2018 00:00:00 0,0 -4,0 11 6 N 10
14.02.2018 23:00:00 1,0 -4,0 9 5 N 10
14.02.2018 22:00:00 0,0 -3,0 9 5 N 10
14.02.2018 21:00:00 1,0 -3,0 9 5 NNW 10
14.02.2018 20:00:00 1,0 -3,0 15 8 N 10
14.02.2018 19:00:00 1,0 -3,0 22 12 N 10
14.02.2018 18:00:00 1,0 -2,0 16 9 N 10
14.02.2018 17:00:00 1,0 -2,0 13 7 N 10
14.02.2018 16:00:00 2,0 -2,0 16 9 N 10
14.02.2018 15:00:00 2,0 -2,0 16 9 N 10
14.02.2018 14:00:00 3,0 -2,0 15 8 N 10
14.02.2018 13:00:00 3,0 -1,0 13 7 N 10
14.02.2018 12:00:00 1,0 -3,0 5 3 - 10
14.02.2018 11:00:00 1,0 -2,0 2 1 - 10
14.02.2018 10:00:00 0,0 -2,0 0 0 N 10
14.02.2018 09:00:00 0,0 -3,0 2 1 - 10
14.02.2018 08:00:00 0,0 -3,0 8 4 NNE 10
14.02.2018 07:00:00 0,0 -2,0 9 5 N 10
14.02.2018 06:00:00 0,0 -2,0 8 4 N 8
14.02.2018 05:00:00 0,0 -2,0 8 4 NNE 10
14.02.2018 04:00:00 0,0 -2,0 9 5 NNE 10
14.02.2018 03:00:00 0,0 -2,0 15 8 N 4,0
14.02.2018 02:00:00 0,0 -1,0 11 6 N 6
14.02.2018 01:00:00 1,0 -1,0 16 9 N 6
14.02.2018 00:00:00 1,0 -1,0 24 13 NNE 8
13.02.2018 23:00:00 2,0 0,0 5 3 - 8
13.02.2018 22:00:00 2,0 0,0 5 3 - 10
13.02.2018 21:00:00 2,0 0,0 4 2 - 10
13.02.2018 20:00:00 2,0 0,0 2 1 - 10
13.02.2018 19:00:00 2,0 0,0 2 1 - 10
13.02.2018 18:00:00 2,0 -1,0 9 5 SW 10
13.02.2018 17:00:00 3,0 0,0 16 9 S 10
13.02.2018 16:00:00 3,0 0,0 18 10 SSE 10

tt = temperature
td = dewpoint
ff = wind speed
dd = wind direction
vv = visibility

Next stations